Listerhav — ZDKC7 — position and weather

sailwx.info

Track history (hours):
 
Tides and Currents Weather Stations Pressure Air Temp Water Temp Dewpoint Dewpoint Depression Visibility Wind Speed Wind Dir Waves Ship Positions

Listerhav

Last reported at 2015-Jan-25 04:20 UTC. Time now 2015-Jan-25 16:22 UTC.
Position N 55°32' E 015°06'.

Length 88 m; draft 4.1 m.

Type: Cargo ship. MMSI: 236591000.

Date/timePositionNaut miles runAvg speedWind from/ knotsBaromVisibWave heightAir tempDewpointWater temp
2015-Jan-25 04:20N 55°32' E 015°06'810.2
2015-Jan-25 03:32N 55°28' E 014°54'11 9.4
2015-Jan-25 02:20N 55°22' E 014°37'810.1
2015-Jan-25 01:30N 55°16' E 014°27'9 9.7
2015-Jan-25 00:33N 55°11' E 014°13'3010.0
2015-Jan-24 21:33N 55°13' E 013°21'10 9.8
2015-Jan-24 20:33N 55°14' E 013°04'1010.3
2015-Jan-24 19:33N 55°16' E 012°46'8 8.0
2015-Jan-24 18:33N 55°23' E 012°39'9 9.3
2015-Jan-24 17:33N 55°32' E 012°42'9 8.6
2015-Jan-24 16:33N 55°41' E 012°41'9 9.2
2015-Jan-24 15:33N 55°50' E 012°40'9 9.0
2015-Jan-24 14:33N 55°59' E 012°38'7 7.0
2015-Jan-24 13:33N 56°06' E 012°33'7 7.1
2015-Jan-24 12:33N 56°10' E 012°22'9 9.2
2015-Jan-24 11:33N 56°14' E 012°08'70 3.8
2015-Jan-23 17:13N 56°28' E 010°03'0 0.0
2015-Jan-23 15:31N 56°28' E 010°03'0 0.0
2015-Jan-23 12:07N 56°28' E 010°03'0 0.0
2015-Jan-23 09:04N 56°28' E 010°03'0 0.0
2015-Jan-23 08:07N 56°28' E 010°03'0 0.0
2015-Jan-23 07:16N 56°28' E 010°03'0 0.0
2015-Jan-22 14:18N 56°28' E 010°03'0 0.0
2015-Jan-22 13:30N 56°28' E 010°03'0 0.0
2015-Jan-22 12:30N 56°28' E 010°03'0 0.0
2015-Jan-22 11:18N 56°28' E 010°03'1 0.7
2015-Jan-22 10:33N 56°28' E 010°04'5 5.2
2015-Jan-22 09:33N 56°29' E 010°13'7 6.4
2015-Jan-22 08:33N 56°35' E 010°17'64 4.2
2015-Jan-21 17:27N 56°17' E 012°07'6 6.9
2015-Jan-21 16:33N 56°13' E 012°16'10 9.7
2015-Jan-21 15:33N 56°08' E 012°31'1111.0
2015-Jan-21 14:33N 55°59' E 012°42'10 9.7
2015-Jan-21 13:33N 55°49' E 012°43'10 9.9
2015-Jan-21 12:33N 55°39' E 012°42'10 9.7
2015-Jan-21 11:33N 55°30' E 012°43'9 9.0
2015-Jan-21 10:33N 55°21' E 012°41'8 8.1
2015-Jan-21 09:33N 55°16' E 012°53'9 9.4
2015-Jan-21 08:33N 55°16' E 013°09'1010.0
2015-Jan-21 07:33N 55°15' E 013°27'10 9.7
2015-Jan-21 06:33N 55°14' E 013°44'1010.1
2015-Jan-21 05:33N 55°14' E 014°01'9 9.2
2015-Jan-21 04:33N 55°15' E 014°18'10 9.7
2015-Jan-21 03:33N 55°22' E 014°29'9 9.1
2015-Jan-21 02:33N 55°27' E 014°43'9 8.9
2015-Jan-21 01:33N 55°30' E 014°57'9 8.7
2015-Jan-21 00:33N 55°33' E 015°12'9 9.0
2015-Jan-20 23:33N 55°35' E 015°28'  
2015-Jan-18 03:32N 55°30' E 015°18'1010.5
2015-Jan-18 02:33N 55°27' E 015°00'10 9.9
2015-Jan-18 01:33N 55°24' E 014°44'10 9.8
2015-Jan-18 00:33N 55°17' E 014°31'10 9.8
2015-Jan-17 23:33N 55°11' E 014°17'1010.1
2015-Jan-17 22:33N 55°11' E 013°60'10 9.8
2015-Jan-17 21:33N 55°12' E 013°43'1010.1
2015-Jan-17 20:33N 55°13' E 013°25'1010.3
2015-Jan-17 19:33N 55°13' E 013°07'9 9.2
2015-Jan-17 18:33N 55°15' E 012°51'9 9.1
2015-Jan-17 17:33N 55°20' E 012°38'9 9.3
2015-Jan-17 16:33N 55°29' E 012°41'9 8.7
2015-Jan-17 15:33N 55°37' E 012°42'9 8.7
2015-Jan-17 14:33N 55°46' E 012°41'9 9.1
2015-Jan-17 13:33N 55°55' E 012°39'8 8.4
2015-Jan-17 12:33N 56°03' E 012°38'9 9.4
2015-Jan-17 11:33N 56°09' E 012°25'10 9.6
2015-Jan-17 10:33N 56°14' E 012°10'71 4.2
2015-Jan-16 17:31N 56°28' E 010°03'0 0.0
2015-Jan-16 16:31N 56°28' E 010°03'0 0.0
2015-Jan-16 15:25N 56°28' E 010°03'0 0.0
2015-Jan-16 08:19N 56°28' E 010°03'65 2.6
2015-Jan-15 07:11N 56°19' E 012°00'6 9.0
2015-Jan-15 06:33N 56°16' E 012°09'9 9.3
2015-Jan-15 05:33N 56°11' E 012°23'1010.0
2015-Jan-15 04:33N 56°05' E 012°37'  
Track history (hours):
 
Tides and Currents Weather Stations Pressure Air Temp Water Temp Dewpoint Dewpoint Depression Visibility Wind Speed Wind Dir Waves Ship Positions

Listerhav

Last reported at 2015-Jan-25 04:20 UTC. Time now 2015-Jan-25 16:22 UTC.
Position N 55°32' E 015°06'.

Length 88 m; draft 4.1 m.

Type: Cargo ship. MMSI: 236591000.

Date/timePositionNaut miles runAvg speedWind from/ knotsBaromVisibWave heightAir tempDewpointWater temp
2015-Jan-25 04:20N 55°32' E 015°06'810.2
2015-Jan-25 03:32N 55°28' E 014°54'11 9.4
2015-Jan-25 02:20N 55°22' E 014°37'810.1
2015-Jan-25 01:30N 55°16' E 014°27'9 9.7
2015-Jan-25 00:33N 55°11' E 014°13'3010.0
2015-Jan-24 21:33N 55°13' E 013°21'10 9.8
2015-Jan-24 20:33N 55°14' E 013°04'1010.3
2015-Jan-24 19:33N 55°16' E 012°46'8 8.0
2015-Jan-24 18:33N 55°23' E 012°39'9 9.3
2015-Jan-24 17:33N 55°32' E 012°42'9 8.6
2015-Jan-24 16:33N 55°41' E 012°41'9 9.2
2015-Jan-24 15:33N 55°50' E 012°40'9 9.0
2015-Jan-24 14:33N 55°59' E 012°38'7 7.0
2015-Jan-24 13:33N 56°06' E 012°33'7 7.1
2015-Jan-24 12:33N 56°10' E 012°22'9 9.2
2015-Jan-24 11:33N 56°14' E 012°08'70 3.8
2015-Jan-23 17:13N 56°28' E 010°03'0 0.0
2015-Jan-23 15:31N 56°28' E 010°03'0 0.0
2015-Jan-23 12:07N 56°28' E 010°03'0 0.0
2015-Jan-23 09:04N 56°28' E 010°03'0 0.0
2015-Jan-23 08:07N 56°28' E 010°03'0 0.0
2015-Jan-23 07:16N 56°28' E 010°03'0 0.0
2015-Jan-22 14:18N 56°28' E 010°03'0 0.0
2015-Jan-22 13:30N 56°28' E 010°03'0 0.0
2015-Jan-22 12:30N 56°28' E 010°03'0 0.0
2015-Jan-22 11:18N 56°28' E 010°03'1 0.7
2015-Jan-22 10:33N 56°28' E 010°04'5 5.2
2015-Jan-22 09:33N 56°29' E 010°13'7 6.4
2015-Jan-22 08:33N 56°35' E 010°17'64 4.2
2015-Jan-21 17:27N 56°17' E 012°07'6 6.9
2015-Jan-21 16:33N 56°13' E 012°16'10 9.7
2015-Jan-21 15:33N 56°08' E 012°31'1111.0
2015-Jan-21 14:33N 55°59' E 012°42'10 9.7
2015-Jan-21 13:33N 55°49' E 012°43'10 9.9
2015-Jan-21 12:33N 55°39' E 012°42'10 9.7
2015-Jan-21 11:33N 55°30' E 012°43'9 9.0
2015-Jan-21 10:33N 55°21' E 012°41'8 8.1
2015-Jan-21 09:33N 55°16' E 012°53'9 9.4
2015-Jan-21 08:33N 55°16' E 013°09'1010.0
2015-Jan-21 07:33N 55°15' E 013°27'10 9.7
2015-Jan-21 06:33N 55°14' E 013°44'1010.1
2015-Jan-21 05:33N 55°14' E 014°01'9 9.2
2015-Jan-21 04:33N 55°15' E 014°18'10 9.7
2015-Jan-21 03:33N 55°22' E 014°29'9 9.1
2015-Jan-21 02:33N 55°27' E 014°43'9 8.9
2015-Jan-21 01:33N 55°30' E 014°57'9 8.7
2015-Jan-21 00:33N 55°33' E 015°12'9 9.0
2015-Jan-20 23:33N 55°35' E 015°28'  
2015-Jan-18 03:32N 55°30' E 015°18'1010.5
2015-Jan-18 02:33N 55°27' E 015°00'10 9.9
2015-Jan-18 01:33N 55°24' E 014°44'10 9.8
2015-Jan-18 00:33N 55°17' E 014°31'10 9.8
2015-Jan-17 23:33N 55°11' E 014°17'1010.1
2015-Jan-17 22:33N 55°11' E 013°60'10 9.8
2015-Jan-17 21:33N 55°12' E 013°43'1010.1
2015-Jan-17 20:33N 55°13' E 013°25'1010.3
2015-Jan-17 19:33N 55°13' E 013°07'9 9.2
2015-Jan-17 18:33N 55°15' E 012°51'9 9.1
2015-Jan-17 17:33N 55°20' E 012°38'9 9.3
2015-Jan-17 16:33N 55°29' E 012°41'9 8.7
2015-Jan-17 15:33N 55°37' E 012°42'9 8.7
2015-Jan-17 14:33N 55°46' E 012°41'9 9.1
2015-Jan-17 13:33N 55°55' E 012°39'8 8.4
2015-Jan-17 12:33N 56°03' E 012°38'9 9.4
2015-Jan-17 11:33N 56°09' E 012°25'10 9.6
2015-Jan-17 10:33N 56°14' E 012°10'71 4.2
2015-Jan-16 17:31N 56°28' E 010°03'0 0.0
2015-Jan-16 16:31N 56°28' E 010°03'0 0.0
2015-Jan-16 15:25N 56°28' E 010°03'0 0.0
2015-Jan-16 08:19N 56°28' E 010°03'65 2.6
2015-Jan-15 07:11N 56°19' E 012°00'6 9.0
2015-Jan-15 06:33N 56°16' E 012°09'9 9.3
2015-Jan-15 05:33N 56°11' E 012°23'1010.0
2015-Jan-15 04:33N 56°05' E 012°37'  

Dump ship's entire track history